createdAt,value
2022-12-11T00:00:05.559Z,98991.97
2022-12-11T00:00:15.583Z,98988.93
2022-12-11T00:00:25.633Z,98986.67
2022-12-11T00:00:35.638Z,98993.27
2022-12-11T00:00:45.563Z,98995.71
2022-12-11T00:00:55.654Z,98991.92
2022-12-11T00:01:05.621Z,98984.66
2022-12-11T00:01:15.567Z,98988.84
2022-12-11T00:01:25.603Z,98986.56
2022-12-11T00:01:35.587Z,98990.14
2022-12-11T00:01:45.613Z,98986.94
2022-12-11T00:01:55.676Z,98989.75
2022-12-11T00:02:05.596Z,98988.39
2022-12-11T00:02:15.590Z,98988.06
2022-12-11T00:02:25.703Z,98989.05
2022-12-11T00:02:35.631Z,98989.05
2022-12-11T00:02:45.636Z,98983.69
2022-12-11T00:02:55.690Z,98986.94
2022-12-11T00:03:05.589Z,98990.12
2022-12-11T00:03:16.422Z,98987.09
2022-12-11T00:03:25.749Z,98985.91
2022-12-11T00:03:35.574Z,98988.23
2022-12-11T00:03:45.580Z,98988.13
2022-12-11T00:03:55.655Z,98986.23
2022-12-11T00:04:05.528Z,98991.05
2022-12-11T00:04:15.552Z,98990.34
2022-12-11T00:04:25.528Z,98990.62
2022-12-11T00:04:35.611Z,98995.59
2022-12-11T00:04:45.623Z,98986.44
2022-12-11T00:04:55.637Z,98990.30
2022-12-11T00:05:05.654Z,98994.03
2022-12-11T00:05:15.657Z,98991.59
2022-12-11T00:05:25.549Z,98993.38
2022-12-11T00:05:35.639Z,98989.59
2022-12-11T00:05:45.587Z,98991.38
2022-12-11T00:05:55.571Z,98993.33
2022-12-11T00:06:05.648Z,98990.61
2022-12-11T00:06:15.619Z,98989.48
2022-12-11T00:06:25.609Z,98992.62
2022-12-11T00:06:35.572Z,98994.30
2022-12-11T00:06:45.647Z,98992.12
2022-12-11T00:06:55.627Z,98994.09
2022-12-11T00:07:05.550Z,98987.05
2022-12-11T00:07:15.538Z,98994.24
2022-12-11T00:07:25.557Z,98991.09
2022-12-11T00:07:35.556Z,98993.03
2022-12-11T00:07:45.614Z,98987.14
2022-12-11T00:07:55.569Z,98988.98
2022-12-11T00:08:05.629Z,98990.86
2022-12-11T00:08:15.651Z,98992.66
2022-12-11T00:08:25.684Z,98989.40
2022-12-11T00:08:35.564Z,98987.57
2022-12-11T00:08:45.581Z,98989.03
2022-12-11T00:08:55.592Z,98993.30
2022-12-11T00:09:05.554Z,98989.02
2022-12-11T00:09:15.562Z,98985.02
2022-12-11T00:09:25.599Z,98986.97
2022-12-11T00:09:35.528Z,98989.33
2022-12-11T00:09:45.549Z,98991.30
2022-12-11T00:09:55.645Z,98985.88
2022-12-11T00:10:05.534Z,98989.07
2022-12-11T00:10:15.642Z,98986.12
2022-12-11T00:10:25.583Z,98987.98
2022-12-11T00:10:38.020Z,98987.70
2022-12-11T00:10:45.649Z,98990.64
2022-12-11T00:10:55.554Z,98988.94
2022-12-11T00:11:05.577Z,98991.44
2022-12-11T00:11:15.525Z,98984.67
2022-12-11T00:11:25.629Z,98989.88
2022-12-11T00:11:35.579Z,98993.22
2022-12-11T00:11:45.553Z,98989.17
2022-12-11T00:11:55.537Z,98990.39
2022-12-11T00:12:05.524Z,98985.74
2022-12-11T00:12:15.556Z,98985.80
2022-12-11T00:12:25.534Z,98988.61
2022-12-11T00:12:35.543Z,98984.12
2022-12-11T00:12:45.528Z,98985.62
2022-12-11T00:12:55.640Z,98983.37
2022-12-11T00:13:05.648Z,98987.69
2022-12-11T00:13:15.524Z,98990.28
2022-12-11T00:13:25.530Z,98990.45
2022-12-11T00:13:35.638Z,98988.02
2022-12-11T00:13:45.644Z,98986.07
2022-12-11T00:13:55.654Z,98989.42
2022-12-11T00:14:05.548Z,98987.20
2022-12-11T00:14:15.558Z,98987.86
2022-12-11T00:14:25.658Z,98990.52
2022-12-11T00:14:35.544Z,98988.55
2022-12-11T00:14:45.617Z,98986.72
2022-12-11T00:14:55.607Z,98986.44
2022-12-11T00:15:05.592Z,98984.94
2022-12-11T00:15:15.614Z,98986.17
2022-12-11T00:15:25.619Z,98989.00
2022-12-11T00:15:35.594Z,98988.03
2022-12-11T00:15:45.633Z,98987.48
2022-12-11T00:15:55.555Z,98984.98
2022-12-11T00:16:05.655Z,98984.12
2022-12-11T00:16:15.713Z,98988.83
2022-12-11T00:16:27.235Z,98990.31
2022-12-11T00:16:35.639Z,98986.45
2022-12-11T00:16:45.624Z,98987.96
2022-12-11T00:16:55.599Z,98988.46
2022-12-11T00:17:05.647Z,98992.89
2022-12-11T00:17:15.578Z,98988.89
2022-12-11T00:17:25.635Z,98989.59
2022-12-11T00:17:35.657Z,98987.62
2022-12-11T00:17:45.561Z,98989.27
2022-12-11T00:18:00.519Z,98985.80
2022-12-11T00:18:05.657Z,98989.84
2022-12-11T00:18:15.525Z,98989.58
2022-12-11T00:18:25.531Z,98985.58
2022-12-11T00:18:35.624Z,98988.70
2022-12-11T00:18:45.658Z,98986.33
2022-12-11T00:18:55.565Z,98984.47
2022-12-11T00:19:05.577Z,98989.67
2022-12-11T00:19:15.568Z,98985.72
2022-12-11T00:19:25.604Z,98988.31
2022-12-11T00:19:35.630Z,98985.61
2022-12-11T00:19:45.577Z,98988.31
2022-12-11T00:19:55.656Z,98988.97
2022-12-11T00:20:05.552Z,98986.52
2022-12-11T00:20:15.537Z,98986.03
2022-12-11T00:20:25.656Z,98986.80
2022-12-11T00:20:35.658Z,98991.12
2022-12-11T00:20:45.579Z,98985.78
2022-12-11T00:20:55.560Z,98986.70
2022-12-11T00:21:05.539Z,98986.81
2022-12-11T00:21:15.549Z,98987.73
2022-12-11T00:21:25.558Z,98986.16
2022-12-11T00:21:35.638Z,98987.74
2022-12-11T00:21:45.541Z,98986.06
2022-12-11T00:21:55.626Z,98987.30
2022-12-11T00:22:05.574Z,98986.81
2022-12-11T00:22:15.601Z,98989.14
2022-12-11T00:22:25.645Z,98987.09
2022-12-11T00:22:35.668Z,98985.69
2022-12-11T00:22:45.545Z,98985.53
2022-12-11T00:22:55.640Z,98981.80
2022-12-11T00:23:05.554Z,98979.34
2022-12-11T00:23:15.649Z,98983.80
2022-12-11T00:23:25.567Z,98982.77
2022-12-11T00:23:35.648Z,98984.30
2022-12-11T00:23:45.525Z,98981.00
2022-12-11T00:23:55.645Z,98985.11
2022-12-11T00:24:05.622Z,98983.48
2022-12-11T00:24:15.524Z,98979.09
2022-12-11T00:24:25.524Z,98981.59
2022-12-11T00:24:35.660Z,98982.56
2022-12-11T00:24:45.544Z,98984.42
2022-12-11T00:24:55.618Z,98980.36
2022-12-11T00:25:05.607Z,98980.66
2022-12-11T00:25:15.534Z,98977.11
2022-12-11T00:25:25.648Z,98979.48
2022-12-11T00:25:35.535Z,98980.23
2022-12-11T00:25:45.648Z,98979.58
2022-12-11T00:25:55.660Z,98981.16
2022-12-11T00:26:05.626Z,98977.32
2022-12-11T00:26:15.552Z,98984.05
2022-12-11T00:26:25.525Z,98983.66
2022-12-11T00:26:35.644Z,98981.38
2022-12-11T00:26:45.600Z,98984.08
2022-12-11T00:26:55.620Z,98980.62
2022-12-11T00:27:05.601Z,98983.88
2022-12-11T00:27:15.575Z,98980.26
2022-12-11T00:27:25.597Z,98983.94
2022-12-11T00:27:35.554Z,98983.89
2022-12-11T00:27:45.643Z,98985.88
2022-12-11T00:27:56.167Z,98980.84
2022-12-11T00:28:05.653Z,98983.08
2022-12-11T00:28:15.655Z,98988.66
2022-12-11T00:28:25.635Z,98983.89
2022-12-11T00:28:35.618Z,98985.84
2022-12-11T00:28:45.598Z,98984.84
2022-12-11T00:28:55.554Z,98987.28
2022-12-11T00:29:05.525Z,98982.31
2022-12-11T00:29:15.554Z,98985.02
2022-12-11T00:29:25.650Z,98983.95
2022-12-11T00:29:35.572Z,98988.27
2022-12-11T00:29:45.666Z,98987.28
2022-12-11T00:29:55.568Z,98988.11
2022-12-11T00:30:05.561Z,98986.20
2022-12-11T00:30:15.623Z,98989.08
2022-12-11T00:30:25.541Z,98986.59
2022-12-11T00:30:35.655Z,98988.61
2022-12-11T00:30:45.612Z,98988.88
2022-12-11T00:30:55.600Z,98983.39
2022-12-11T00:31:05.554Z,98988.22
2022-12-11T00:31:15.643Z,98986.16
2022-12-11T00:31:25.680Z,98985.02
2022-12-11T00:31:35.684Z,98984.65
2022-12-11T00:31:45.642Z,98986.44
2022-12-11T00:31:55.718Z,98988.70
2022-12-11T00:32:05.581Z,98983.73
2022-12-11T00:32:15.593Z,98985.30
2022-12-11T00:32:28.213Z,98982.91
2022-12-11T00:32:37.707Z,98981.45
2022-12-11T00:32:45.548Z,98985.62
2022-12-11T00:32:55.554Z,98979.94
2022-12-11T00:33:05.635Z,98980.70
2022-12-11T00:33:15.575Z,98985.30
2022-12-11T00:33:25.648Z,98985.72
2022-12-11T00:33:35.577Z,98984.01
2022-12-11T00:33:45.551Z,98984.42
2022-12-11T00:33:55.618Z,98984.05
2022-12-11T00:34:05.636Z,98978.08
2022-12-11T00:34:15.600Z,98980.16
2022-12-11T00:34:25.647Z,98982.95
2022-12-11T00:34:35.659Z,98982.88
2022-12-11T00:34:45.579Z,98982.97
2022-12-11T00:34:55.648Z,98982.77
2022-12-11T00:35:05.612Z,98980.48
2022-12-11T00:35:15.555Z,98980.38
2022-12-11T00:35:25.521Z,98982.66
2022-12-11T00:35:35.650Z,98980.80
2022-12-11T00:35:45.534Z,98982.80
2022-12-11T00:35:55.537Z,98983.99
2022-12-11T00:36:05.579Z,98982.86
2022-12-11T00:36:15.594Z,98983.26
2022-12-11T00:36:25.540Z,98980.09
2022-12-11T00:36:35.566Z,98980.91
2022-12-11T00:36:45.534Z,98983.09
2022-12-11T00:36:55.564Z,98980.98
2022-12-11T00:37:05.597Z,98985.41
2022-12-11T00:37:15.602Z,98980.92
2022-12-11T00:37:25.632Z,98983.84
2022-12-11T00:37:35.618Z,98985.62
2022-12-11T00:37:45.574Z,98983.62
2022-12-11T00:37:56.173Z,98986.88
2022-12-11T00:38:05.550Z,98983.95
2022-12-11T00:38:15.554Z,98981.12
2022-12-11T00:38:25.530Z,98981.94
2022-12-11T00:38:35.588Z,98986.33
2022-12-11T00:38:45.607Z,98982.28
2022-12-11T00:38:55.526Z,98983.89
2022-12-11T00:39:05.541Z,98984.23
2022-12-11T00:39:15.591Z,98985.05
2022-12-11T00:39:25.547Z,98978.80
2022-12-11T00:39:35.615Z,98980.80
2022-12-11T00:39:45.575Z,98982.76
2022-12-11T00:39:55.680Z,98981.19
2022-12-11T00:40:05.539Z,98980.16
2022-12-11T00:40:15.546Z,98978.42
2022-12-11T00:40:25.559Z,98979.23
2022-12-11T00:40:35.564Z,98978.30
2022-12-11T00:40:45.570Z,98980.31
2022-12-11T00:40:55.643Z,98979.06
2022-12-11T00:41:05.655Z,98977.23
2022-12-11T00:41:15.628Z,98982.75
2022-12-11T00:41:25.535Z,98979.88
2022-12-11T00:41:35.558Z,98979.55
2022-12-11T00:41:45.615Z,98978.41
2022-12-11T00:41:55.635Z,98980.42
2022-12-11T00:42:05.635Z,98978.59
2022-12-11T00:42:15.541Z,98983.34
2022-12-11T00:42:25.558Z,98982.43
2022-12-11T00:42:35.614Z,98978.03
2022-12-11T00:42:45.621Z,98979.54
2022-12-11T00:42:55.612Z,98980.47
2022-12-11T00:43:05.538Z,98975.75
2022-12-11T00:43:15.569Z,98976.95
2022-12-11T00:43:25.540Z,98977.43
2022-12-11T00:43:35.564Z,98979.55
2022-12-11T00:43:45.550Z,98975.31
2022-12-11T00:43:55.523Z,98975.81
2022-12-11T00:44:05.581Z,98978.03
2022-12-11T00:44:15.602Z,98977.47
2022-12-11T00:44:25.567Z,98975.97
2022-12-11T00:44:35.624Z,98977.48
2022-12-11T00:44:45.609Z,98978.06
2022-12-11T00:44:55.604Z,98973.78
2022-12-11T00:45:05.524Z,98973.03
2022-12-11T00:45:15.618Z,98977.53
2022-12-11T00:45:25.591Z,98976.56
2022-12-11T00:45:35.662Z,98976.44
2022-12-11T00:45:45.687Z,98973.84
2022-12-11T00:45:55.679Z,98973.73
2022-12-11T00:46:05.628Z,98975.04
2022-12-11T00:46:15.669Z,98975.47
2022-12-11T00:46:25.675Z,98971.95
2022-12-11T00:46:35.642Z,98981.92
2022-12-11T00:46:45.600Z,98978.19
2022-12-11T00:46:55.562Z,98980.08
2022-12-11T00:47:05.560Z,98978.17
2022-12-11T00:47:15.528Z,98977.11
2022-12-11T00:47:25.598Z,98974.18
2022-12-11T00:47:35.610Z,98974.77
2022-12-11T00:47:45.587Z,98977.05
2022-12-11T00:47:58.526Z,98976.72
2022-12-11T00:48:05.629Z,98977.65
2022-12-11T00:48:15.609Z,98981.27
2022-12-11T00:48:25.627Z,98979.00
2022-12-11T00:48:35.634Z,98979.63
2022-12-11T00:48:45.642Z,98978.66
2022-12-11T00:48:55.608Z,98978.12
2022-12-11T00:49:05.528Z,98979.42
2022-12-11T00:49:15.577Z,98983.48
2022-12-11T00:49:25.647Z,98978.62
2022-12-11T00:49:35.599Z,98979.41
2022-12-11T00:49:49.770Z,98975.96
2022-12-11T00:49:58.116Z,98978.50
2022-12-11T00:50:05.531Z,98979.64
2022-12-11T00:50:15.600Z,98974.64
2022-12-11T00:50:25.611Z,98977.23
2022-12-11T00:50:35.547Z,98978.43
2022-12-11T00:50:45.548Z,98976.11
2022-12-11T00:50:55.567Z,98981.70
2022-12-11T00:51:05.639Z,98980.07
2022-12-11T00:51:15.648Z,98981.64
2022-12-11T00:51:25.620Z,98977.52
2022-12-11T00:51:35.557Z,98980.05
2022-12-11T00:51:45.651Z,98981.03
2022-12-11T00:51:55.600Z,98979.84
2022-12-11T00:52:05.552Z,98978.47
2022-12-11T00:52:15.622Z,98979.83
2022-12-11T00:52:25.565Z,98981.52
2022-12-11T00:52:35.607Z,98977.88
2022-12-11T00:52:45.540Z,98981.40
2022-12-11T00:52:55.573Z,98981.97
2022-12-11T00:53:05.624Z,98980.45
2022-12-11T00:53:15.538Z,98981.55
2022-12-11T00:53:25.540Z,98982.89
2022-12-11T00:53:35.603Z,98983.33
2022-12-11T00:53:45.647Z,98985.02
2022-12-11T00:53:55.530Z,98983.66
2022-12-11T00:54:05.552Z,98984.52
2022-12-11T00:54:15.531Z,98983.70
2022-12-11T00:54:25.611Z,98981.16
2022-12-11T00:54:35.550Z,98985.98
2022-12-11T00:54:45.537Z,98979.36
2022-12-11T00:54:55.572Z,98981.97
2022-12-11T00:55:05.611Z,98983.22
2022-12-11T00:55:15.575Z,98982.46
2022-12-11T00:55:25.536Z,98984.40
2022-12-11T00:55:35.651Z,98988.25
2022-12-11T00:55:45.656Z,98981.88
2022-12-11T00:55:55.652Z,98986.20
2022-12-11T00:56:05.555Z,98984.94
2022-12-11T00:56:15.582Z,98987.45
2022-12-11T00:56:25.602Z,98982.41
2022-12-11T00:56:35.581Z,98984.84
2022-12-11T00:56:45.585Z,98989.22
2022-12-11T00:56:55.656Z,98986.74
2022-12-11T00:57:05.543Z,98988.33
2022-12-11T00:57:15.613Z,98989.61
2022-12-11T00:57:25.638Z,98986.80
2022-12-11T00:57:35.574Z,98986.36
2022-12-11T00:57:45.640Z,98986.64
2022-12-11T00:57:55.667Z,98990.76
2022-12-11T00:58:05.567Z,98989.98
2022-12-11T00:58:15.645Z,98991.29
2022-12-11T00:58:25.616Z,98992.23
2022-12-11T00:58:35.546Z,98993.62
2022-12-11T00:58:45.576Z,98988.98
2022-12-11T00:58:55.648Z,98989.08
2022-12-11T00:59:05.556Z,98993.38
2022-12-11T00:59:15.549Z,98992.17
2022-12-11T00:59:25.544Z,98988.27
2022-12-11T00:59:35.651Z,98990.66
2022-12-11T00:59:45.523Z,98993.70
2022-12-11T00:59:55.602Z,98989.91
2022-12-11T01:00:05.588Z,98991.97
2022-12-11T01:00:15.544Z,98992.61
2022-12-11T01:00:25.593Z,98993.70
2022-12-11T01:00:35.586Z,98993.97
2022-12-11T01:00:45.609Z,98995.06
2022-12-11T01:00:55.570Z,98995.23
2022-12-11T01:01:05.649Z,98998.48
2022-12-11T01:01:15.654Z,98989.85
2022-12-11T01:01:25.665Z,98990.02
2022-12-11T01:01:35.666Z,98995.91
2022-12-11T01:01:45.583Z,98991.31
2022-12-11T01:01:55.538Z,98991.48
2022-12-11T01:02:05.650Z,98993.31
2022-12-11T01:02:15.604Z,98994.18
2022-12-11T01:02:25.729Z,98989.47
2022-12-11T01:02:35.713Z,98989.63
2022-12-11T01:02:45.655Z,98992.72
2022-12-11T01:02:55.667Z,98990.39
2022-12-11T01:03:05.556Z,98993.84
2022-12-11T01:03:15.651Z,98993.68
2022-12-11T01:03:25.638Z,98986.55
2022-12-11T01:03:35.570Z,98990.27
2022-12-11T01:03:45.572Z,98989.14
2022-12-11T01:03:55.628Z,98989.31
2022-12-11T01:04:05.583Z,98989.47
2022-12-11T01:04:15.629Z,98990.59
2022-12-11T01:04:25.644Z,98986.64
2022-12-11T01:04:35.549Z,98989.62
2022-12-11T01:04:45.637Z,98987.88
2022-12-11T01:04:55.551Z,98992.33
2022-12-11T01:05:05.577Z,98989.89
2022-12-11T01:05:15.525Z,98983.55
2022-12-11T01:05:25.652Z,98989.23
2022-12-11T01:05:35.545Z,98991.07
2022-12-11T01:05:45.573Z,98988.47
2022-12-11T01:05:55.583Z,98988.42
2022-12-11T01:06:05.570Z,98989.62
2022-12-11T01:06:15.654Z,98988.27
2022-12-11T01:06:25.541Z,98990.70
2022-12-11T01:06:35.575Z,98983.23
2022-12-11T01:06:45.644Z,98985.56
2022-12-11T01:06:55.565Z,98985.30
2022-12-11T01:07:05.627Z,98989.52
2022-12-11T01:07:15.659Z,98983.62
2022-12-11T01:07:25.585Z,98987.89
2022-12-11T01:07:35.617Z,98982.97
2022-12-11T01:07:45.697Z,98988.38
2022-12-11T01:07:56.207Z,98989.84
2022-12-11T01:08:05.703Z,98986.11
2022-12-11T01:08:15.730Z,98986.06
2022-12-11T01:08:25.689Z,98988.87
2022-12-11T01:08:38.743Z,98985.98
2022-12-11T01:08:45.644Z,98983.89
2022-12-11T01:08:55.538Z,98988.64
2022-12-11T01:09:05.660Z,98987.12
2022-12-11T01:09:15.555Z,98987.29
2022-12-11T01:09:25.646Z,98988.91
2022-12-11T01:09:35.635Z,98987.61
2022-12-11T01:09:45.605Z,98985.83
2022-12-11T01:09:55.568Z,98988.34
2022-12-11T01:10:05.630Z,98989.58
2022-12-11T01:10:15.640Z,98983.89
2022-12-11T01:10:25.760Z,98989.35
2022-12-11T01:10:35.599Z,98985.94
2022-12-11T01:10:45.626Z,98990.08
2022-12-11T01:10:55.639Z,98989.36
2022-12-11T01:11:05.655Z,98985.34
2022-12-11T01:11:15.586Z,98991.97
2022-12-11T01:11:25.585Z,98989.05
2022-12-11T01:11:35.538Z,98987.53
2022-12-11T01:11:45.534Z,98985.57
2022-12-11T01:11:55.606Z,98987.75
2022-12-11T01:12:05.565Z,98991.48
2022-12-11T01:12:15.619Z,98994.58
2022-12-11T01:12:25.569Z,98994.14
2022-12-11T01:12:35.568Z,98991.27
2022-12-11T01:12:45.587Z,98994.67
2022-12-11T01:12:55.649Z,98995.16
2022-12-11T01:13:05.573Z,98992.02
2022-12-11T01:13:15.621Z,98992.84
2022-12-11T01:13:25.658Z,98994.13
2022-12-11T01:13:35.580Z,98996.80
2022-12-11T01:13:45.526Z,98994.63
2022-12-11T01:13:55.646Z,98992.36
2022-12-11T01:14:05.650Z,98994.14
2022-12-11T01:14:15.596Z,98991.88
2022-12-11T01:14:25.540Z,98989.27
2022-12-11T01:14:35.593Z,98993.11
2022-12-11T01:14:45.650Z,98992.84
2022-12-11T01:14:55.658Z,98993.82
2022-12-11T01:15:05.597Z,98992.34
2022-12-11T01:15:15.545Z,98990.73
2022-12-11T01:15:25.606Z,98992.02
2022-12-11T01:15:41.099Z,98993.82
2022-12-11T01:15:45.575Z,98991.05
2022-12-11T01:15:55.583Z,98988.89
2022-12-11T01:16:05.653Z,98994.09
2022-12-11T01:16:15.705Z,98987.75
2022-12-11T01:16:25.611Z,98991.33
2022-12-11T01:16:35.650Z,98988.02
2022-12-11T01:16:45.633Z,98986.08
2022-12-11T01:16:55.641Z,98989.97
2022-12-11T01:17:05.645Z,98992.23
2022-12-11T01:17:15.542Z,98993.98
2022-12-11T01:17:25.575Z,98993.70
2022-12-11T01:17:35.525Z,98990.67
2022-12-11T01:17:45.607Z,98996.31
2022-12-11T01:17:55.652Z,98996.20
2022-12-11T01:18:05.604Z,98992.78
2022-12-11T01:18:15.571Z,98994.67
2022-12-11T01:18:25.619Z,98996.30
2022-12-11T01:18:35.606Z,98996.75
2022-12-11T01:18:45.621Z,98995.92
2022-12-11T01:18:55.548Z,98996.75
2022-12-11T01:19:05.559Z,98995.18
2022-12-11T01:19:15.627Z,98995.34
2022-12-11T01:19:25.536Z,98994.37
2022-12-11T01:19:35.602Z,98994.14
2022-12-11T01:19:45.658Z,98993.87
2022-12-11T01:19:55.636Z,98993.48
2022-12-11T01:20:05.626Z,98999.22
2022-12-11T01:20:15.553Z,98996.58
2022-12-11T01:20:25.648Z,98993.22
2022-12-11T01:20:35.538Z,98992.58
2022-12-11T01:20:45.637Z,98993.38
2022-12-11T01:20:55.628Z,98995.16
2022-12-11T01:21:05.588Z,98998.73
2022-12-11T01:21:15.537Z,98994.02
2022-12-11T01:21:25.633Z,98994.27
2022-12-11T01:21:35.618Z,98994.69
2022-12-11T01:21:45.625Z,98999.23
2022-12-11T01:21:55.639Z,98998.14
2022-12-11T01:22:05.565Z,98995.77
2022-12-11T01:22:15.645Z,98996.15
2022-12-11T01:22:25.574Z,98994.09
2022-12-11T01:22:35.617Z,98992.31
2022-12-11T01:22:45.530Z,98995.71
2022-12-11T01:22:55.609Z,98998.95
2022-12-11T01:23:05.542Z,98996.70
2022-12-11T01:23:15.573Z,98998.00
2022-12-11T01:23:25.587Z,98996.30
2022-12-11T01:23:35.537Z,98998.53
2022-12-11T01:23:45.537Z,98994.91
2022-12-11T01:23:55.592Z,98992.68
2022-12-11T01:24:05.609Z,98996.47
2022-12-11T01:24:15.648Z,98991.43
2022-12-11T01:24:25.591Z,98997.67
2022-12-11T01:24:35.612Z,98996.70
2022-12-11T01:24:45.620Z,98990.52
2022-12-11T01:24:55.621Z,98994.59
2022-12-11T01:25:05.551Z,98995.17
2022-12-11T01:25:15.556Z,99000.96
2022-12-11T01:25:25.645Z,98995.77
2022-12-11T01:25:35.567Z,99003.15
2022-12-11T01:25:45.579Z,98993.49
2022-12-11T01:25:55.540Z,98999.19
2022-12-11T01:26:05.581Z,99000.43
2022-12-11T01:26:15.616Z,98998.11
2022-12-11T01:26:25.598Z,98994.21
2022-12-11T01:26:35.582Z,98994.91
2022-12-11T01:26:45.669Z,98998.77
2022-12-11T01:26:55.601Z,98996.00
2022-12-11T01:27:05.596Z,98995.47
2022-12-11T01:27:15.537Z,98996.60
2022-12-11T01:27:25.622Z,98996.50
2022-12-11T01:27:35.645Z,98996.17
2022-12-11T01:27:45.626Z,98993.89
2022-12-11T01:27:56.169Z,98994.44
2022-12-11T01:28:05.637Z,98993.58
2022-12-11T01:28:15.661Z,98998.61
2022-12-11T01:28:25.609Z,98992.28
2022-12-11T01:28:35.658Z,98995.47
2022-12-11T01:28:45.557Z,98992.42
2022-12-11T01:28:55.553Z,98994.34
2022-12-11T01:29:05.593Z,98997.38
2022-12-11T01:29:15.522Z,98996.73
2022-12-11T01:29:25.594Z,98997.92
2022-12-11T01:29:35.595Z,98996.56
2022-12-11T01:29:45.528Z,98991.52
2022-12-11T01:29:55.602Z,98994.45
2022-12-11T01:30:05.590Z,98994.66
2022-12-11T01:30:15.593Z,98991.62
2022-12-11T01:30:25.602Z,98991.86
2022-12-11T01:30:35.591Z,98991.03
2022-12-11T01:30:45.763Z,98992.38
2022-12-11T01:30:55.669Z,98988.70
2022-12-11T01:31:05.667Z,98989.62
2022-12-11T01:31:15.609Z,98989.45
2022-12-11T01:31:25.585Z,98985.84
2022-12-11T01:31:35.633Z,98990.55
2022-12-11T01:31:45.650Z,98986.86
2022-12-11T01:31:55.558Z,98983.99
2022-12-11T01:32:05.590Z,98985.77
2022-12-11T01:32:15.579Z,98986.91
2022-12-11T01:32:25.582Z,98984.36
2022-12-11T01:32:35.563Z,98986.03
2022-12-11T01:32:45.532Z,98987.50
2022-12-11T01:32:55.561Z,98985.93
2022-12-11T01:33:05.589Z,98987.50
2022-12-11T01:33:15.579Z,98982.80
2022-12-11T01:33:25.581Z,98983.66
2022-12-11T01:33:35.645Z,98985.50
2022-12-11T01:33:45.666Z,98990.52
2022-12-11T01:33:55.617Z,98986.31
2022-12-11T01:34:05.640Z,98990.95
2022-12-11T01:34:15.560Z,98991.78
2022-12-11T01:34:25.538Z,98993.23
2022-12-11T01:34:35.526Z,98990.64
2022-12-11T01:34:45.554Z,98987.48
2022-12-11T01:34:55.614Z,98988.20
2022-12-11T01:35:05.594Z,98992.86
2022-12-11T01:35:15.635Z,98989.55
2022-12-11T01:35:25.647Z,98987.17
2022-12-11T01:35:35.610Z,98988.91
2022-12-11T01:35:45.590Z,98987.49
2022-12-11T01:35:55.568Z,98990.78
2022-12-11T01:36:05.542Z,98990.31
2022-12-11T01:36:15.594Z,98991.45
2022-12-11T01:36:25.651Z,98987.88
2022-12-11T01:36:35.647Z,98987.22
2022-12-11T01:36:45.548Z,98989.12
2022-12-11T01:36:55.681Z,98987.86
2022-12-11T01:37:05.659Z,98987.48
2022-12-11T01:37:15.629Z,98987.81
2022-12-11T01:37:25.559Z,98988.02
2022-12-11T01:37:35.596Z,98993.28
2022-12-11T01:37:45.592Z,98988.84
2022-12-11T01:37:55.546Z,98990.41
2022-12-11T01:38:05.592Z,98987.85
2022-12-11T01:38:15.563Z,98992.40
2022-12-11T01:38:25.532Z,98990.41
2022-12-11T01:38:35.554Z,98986.39
2022-12-11T01:38:45.625Z,98986.88
2022-12-11T01:38:55.647Z,98991.64
2022-12-11T01:39:05.550Z,98990.67
2022-12-11T01:39:15.603Z,98990.78
2022-12-11T01:39:25.654Z,98991.77
2022-12-11T01:39:35.559Z,98990.02
2022-12-11T01:39:45.560Z,98992.15
2022-12-11T01:39:55.626Z,98995.12
2022-12-11T01:40:05.595Z,98995.45
2022-12-11T01:40:15.615Z,98991.72
2022-12-11T01:40:25.635Z,99000.16
2022-12-11T01:40:35.541Z,98993.66
2022-12-11T01:40:45.568Z,98996.53
2022-12-11T01:40:55.631Z,98993.72
2022-12-11T01:41:05.652Z,98995.55
2022-12-11T01:41:15.584Z,98995.72
2022-12-11T01:41:25.595Z,98991.43
2022-12-11T01:41:35.632Z,98997.12
2022-12-11T01:41:45.579Z,98993.44
2022-12-11T01:41:55.561Z,98995.81
2022-12-11T01:42:05.570Z,98994.20
2022-12-11T01:42:15.567Z,98998.31
2022-12-11T01:42:25.573Z,98994.78
2022-12-11T01:42:35.591Z,98993.22
2022-12-11T01:42:45.586Z,98997.16
2022-12-11T01:42:55.608Z,98998.30
2022-12-11T01:43:05.610Z,98994.30
2022-12-11T01:43:15.526Z,98996.02
2022-12-11T01:43:25.539Z,98998.20
2022-12-11T01:43:35.657Z,98998.30
2022-12-11T01:43:45.573Z,98998.69
2022-12-11T01:43:55.523Z,98998.77
2022-12-11T01:44:05.561Z,98996.92
2022-12-11T01:44:15.649Z,98997.58
2022-12-11T01:44:25.580Z,98997.96
2022-12-11T01:44:35.546Z,98996.38
2022-12-11T01:44:45.525Z,98997.58
2022-12-11T01:44:55.566Z,99000.99
2022-12-11T01:45:05.652Z,99002.34
2022-12-11T01:45:15.654Z,98999.67
2022-12-11T01:45:27.119Z,99001.52
2022-12-11T01:45:35.585Z,98999.52
2022-12-11T01:45:45.550Z,99002.55
2022-12-11T01:45:55.678Z,98997.73
2022-12-11T01:46:05.672Z,98999.03
2022-12-11T01:46:15.608Z,99000.88
2022-12-11T01:46:25.683Z,98997.24
2022-12-11T01:46:35.655Z,99001.95
2022-12-11T01:46:45.588Z,99003.80
2022-12-11T01:46:55.540Z,98999.25
2022-12-11T01:47:05.544Z,98999.37
2022-12-11T01:47:15.644Z,99000.33
2022-12-11T01:47:25.596Z,99004.41
2022-12-11T01:47:35.640Z,98999.75
2022-12-11T01:47:45.565Z,98998.27
2022-12-11T01:47:55.550Z,98999.81
2022-12-11T01:48:05.589Z,99000.93
2022-12-11T01:48:15.605Z,99000.78
2022-12-11T01:48:25.615Z,98997.58
2022-12-11T01:48:40.681Z,99007.66
2022-12-11T01:48:45.543Z,99002.19
2022-12-11T01:48:55.571Z,99002.74
2022-12-11T01:49:05.604Z,99003.02
2022-12-11T01:49:15.610Z,98999.54
2022-12-11T01:49:25.580Z,99005.46
2022-12-11T01:49:35.590Z,99003.11
2022-12-11T01:49:45.544Z,99001.16
2022-12-11T01:49:55.562Z,99002.58
2022-12-11T01:50:05.626Z,99001.53
2022-12-11T01:50:15.579Z,99002.41
2022-12-11T01:50:25.656Z,99001.76
2022-12-11T01:50:35.658Z,99005.06
2022-12-11T01:50:45.533Z,98997.52
2022-12-11T01:50:55.553Z,99002.29
2022-12-11T01:51:05.525Z,98998.94
2022-12-11T01:51:15.605Z,98996.02
2022-12-11T01:51:25.535Z,99003.97
2022-12-11T01:51:35.538Z,98997.62
2022-12-11T01:51:45.666Z,99002.39
2022-12-11T01:51:55.522Z,99005.80
2022-12-11T01:52:05.656Z,99002.50
2022-12-11T01:52:15.544Z,98998.60
2022-12-11T01:52:25.553Z,99004.33
2022-12-11T01:52:35.622Z,99004.33
2022-12-11T01:52:45.539Z,99001.62
2022-12-11T01:52:55.586Z,99006.77
2022-12-11T01:53:05.578Z,99001.14
2022-12-11T01:53:15.604Z,99005.51
2022-12-11T01:53:25.657Z,99001.46
2022-12-11T01:53:35.571Z,98999.02
2022-12-11T01:53:45.566Z,98999.35
2022-12-11T01:53:55.526Z,99001.34
2022-12-11T01:54:05.583Z,99002.32
2022-12-11T01:54:15.647Z,99000.05
2022-12-11T01:54:25.555Z,99003.53
2022-12-11T01:54:35.531Z,99003.20
2022-12-11T01:54:45.604Z,99003.16
2022-12-11T01:54:55.555Z,99004.13
2022-12-11T01:55:05.659Z,99004.56
2022-12-11T01:55:15.650Z,99003.00
2022-12-11T01:55:25.638Z,99005.00
2022-12-11T01:55:35.572Z,99003.65
2022-12-11T01:55:45.633Z,99001.66
2022-12-11T01:55:55.557Z,99003.23
2022-12-11T01:56:05.541Z,98999.27
2022-12-11T01:56:15.640Z,98997.65
2022-12-11T01:56:25.624Z,98999.54
2022-12-11T01:56:35.578Z,99001.77
2022-12-11T01:56:45.570Z,98997.34
2022-12-11T01:56:55.534Z,98999.77
2022-12-11T01:57:05.624Z,98999.66
2022-12-11T01:57:15.616Z,98997.93
2022-12-11T01:57:25.523Z,99002.30